sensor_id;sensor_type;location;lat;lon;timestamp;P1;durP1;ratioP1;P2;durP2;ratioP2
67869;SDS011;54673;52.262;6.830;2024-03-23T00:53:06;11.18;;;3.10;;
67869;SDS011;54673;52.262;6.830;2024-03-23T00:55:32;10.73;;;3.80;;
67869;SDS011;54673;52.262;6.830;2024-03-23T00:57:58;11.20;;;3.33;;
67869;SDS011;54673;52.262;6.830;2024-03-23T01:00:24;10.20;;;3.00;;
67869;SDS011;54673;52.262;6.830;2024-03-23T01:02:49;12.07;;;3.60;;
67869;SDS011;54673;52.262;6.830;2024-03-23T01:05:15;10.03;;;2.97;;
67869;SDS011;54673;52.262;6.830;2024-03-23T01:07:40;11.67;;;3.80;;
67869;SDS011;54673;52.262;6.830;2024-03-23T01:10:06;14.98;;;3.72;;
67869;SDS011;54673;52.262;6.830;2024-03-23T01:12:32;20.10;;;4.10;;
67869;SDS011;54673;52.262;6.830;2024-03-23T01:14:57;10.07;;;3.13;;
67869;SDS011;54673;52.262;6.830;2024-03-23T01:17:23;23.23;;;4.67;;
67869;SDS011;54673;52.262;6.830;2024-03-23T01:19:48;7.43;;;3.20;;
67869;SDS011;54673;52.262;6.830;2024-03-23T01:22:14;14.00;;;4.32;;
67869;SDS011;54673;52.262;6.830;2024-03-23T01:24:40;15.20;;;3.23;;
67869;SDS011;54673;52.262;6.830;2024-03-23T01:27:05;10.75;;;3.17;;
67869;SDS011;54673;52.262;6.830;2024-03-23T01:29:31;21.60;;;3.93;;
67869;SDS011;54673;52.262;6.830;2024-03-23T01:31:56;13.77;;;3.60;;
67869;SDS011;54673;52.262;6.830;2024-03-23T01:34:22;15.75;;;3.83;;
67869;SDS011;54673;52.262;6.830;2024-03-23T01:36:49;9.65;;;3.25;;
67869;SDS011;54673;52.262;6.830;2024-03-23T01:39:15;15.93;;;3.67;;
67869;SDS011;54673;52.262;6.830;2024-03-23T01:41:41;14.57;;;3.58;;
67869;SDS011;54673;52.262;6.830;2024-03-23T01:44:08;17.80;;;3.17;;
67869;SDS011;54673;52.262;6.830;2024-03-23T01:46:35;16.05;;;3.58;;
67869;SDS011;54673;52.262;6.830;2024-03-23T01:49:01;11.63;;;3.65;;
67869;SDS011;54673;52.262;6.830;2024-03-23T01:51:27;15.23;;;3.33;;
67869;SDS011;54673;52.262;6.830;2024-03-23T01:53:54;20.02;;;3.90;;
67869;SDS011;54673;52.262;6.830;2024-03-23T01:56:21;11.30;;;2.90;;
67869;SDS011;54673;52.262;6.830;2024-03-23T01:58:47;8.88;;;3.28;;
67869;SDS011;54673;52.262;6.830;2024-03-23T02:01:13;14.03;;;3.57;;
67869;SDS011;54673;52.262;6.830;2024-03-23T02:03:38;16.17;;;3.17;;
67869;SDS011;54673;52.262;6.830;2024-03-23T02:06:05;10.97;;;3.37;;
67869;SDS011;54673;52.262;6.830;2024-03-23T02:08:32;17.02;;;3.60;;
67869;SDS011;54673;52.262;6.830;2024-03-23T02:10:58;14.27;;;3.55;;
67869;SDS011;54673;52.262;6.830;2024-03-23T02:13:24;6.27;;;2.43;;
67869;SDS011;54673;52.262;6.830;2024-03-23T02:15:49;15.63;;;3.22;;
67869;SDS011;54673;52.262;6.830;2024-03-23T02:18:15;17.73;;;3.03;;
67869;SDS011;54673;52.262;6.830;2024-03-23T02:20:40;20.37;;;3.20;;
67869;SDS011;54673;52.262;6.830;2024-03-23T02:23:12;12.23;;;2.65;;
67869;SDS011;54673;52.262;6.830;2024-03-23T02:25:39;10.97;;;2.80;;
67869;SDS011;54673;52.262;6.830;2024-03-23T02:28:04;14.55;;;3.17;;
67869;SDS011;54673;52.262;6.830;2024-03-23T02:30:30;19.27;;;3.87;;
67869;SDS011;54673;52.262;6.830;2024-03-23T02:32:56;7.88;;;2.85;;
67869;SDS011;54673;52.262;6.830;2024-03-23T02:35:21;9.37;;;2.80;;
67869;SDS011;54673;52.262;6.830;2024-03-23T02:37:47;12.00;;;2.78;;
67869;SDS011;54673;52.262;6.830;2024-03-23T02:40:16;19.57;;;3.33;;
67869;SDS011;54673;52.262;6.830;2024-03-23T02:42:42;9.68;;;2.97;;
67869;SDS011;54673;52.262;6.830;2024-03-23T02:45:07;20.97;;;3.30;;
67869;SDS011;54673;52.262;6.830;2024-03-23T02:47:33;8.70;;;2.80;;
67869;SDS011;54673;52.262;6.830;2024-03-23T02:49:59;12.73;;;3.13;;
67869;SDS011;54673;52.262;6.830;2024-03-23T02:52:24;9.27;;;2.97;;
67869;SDS011;54673;52.262;6.830;2024-03-23T02:54:50;17.63;;;3.47;;
67869;SDS011;54673;52.262;6.830;2024-03-23T02:57:15;13.77;;;2.80;;
67869;SDS011;54673;52.262;6.830;2024-03-23T02:59:41;12.55;;;3.60;;
67869;SDS011;54673;52.262;6.830;2024-03-23T03:02:07;8.17;;;2.50;;
67869;SDS011;54673;52.262;6.830;2024-03-23T03:04:32;8.98;;;3.05;;
67869;SDS011;54673;52.262;6.830;2024-03-23T03:06:58;16.20;;;3.93;;
67869;SDS011;54673;52.262;6.830;2024-03-23T03:09:24;13.00;;;4.30;;
67869;SDS011;54673;52.262;6.830;2024-03-23T03:11:50;9.48;;;2.60;;
67869;SDS011;54673;52.262;6.830;2024-03-23T03:14:15;18.73;;;3.87;;
67869;SDS011;54673;52.262;6.830;2024-03-23T03:16:41;14.77;;;3.70;;
67869;SDS011;54673;52.262;6.830;2024-03-23T03:19:06;13.80;;;3.30;;
67869;SDS011;54673;52.262;6.830;2024-03-23T03:21:32;11.27;;;3.43;;
67869;SDS011;54673;52.262;6.830;2024-03-23T03:23:58;20.52;;;5.22;;
67869;SDS011;54673;52.262;6.830;2024-03-23T03:26:23;11.50;;;3.40;;
67869;SDS011;54673;52.262;6.830;2024-03-23T03:28:49;13.93;;;3.72;;
67869;SDS011;54673;52.262;6.830;2024-03-23T03:31:15;14.07;;;4.13;;
67869;SDS011;54673;52.262;6.830;2024-03-23T03:33:41;14.98;;;4.18;;
67869;SDS011;54673;52.262;6.830;2024-03-23T03:36:07;14.00;;;3.40;;
67869;SDS011;54673;52.262;6.830;2024-03-23T03:38:33;14.27;;;4.28;;
67869;SDS011;54673;52.262;6.830;2024-03-23T03:41:02;13.50;;;3.70;;
67869;SDS011;54673;52.262;6.830;2024-03-23T03:43:27;15.07;;;3.97;;
67869;SDS011;54673;52.262;6.830;2024-03-23T03:45:57;12.13;;;4.30;;
67869;SDS011;54673;52.262;6.830;2024-03-23T03:48:24;21.05;;;5.05;;
67869;SDS011;54673;52.262;6.830;2024-03-23T03:50:49;14.57;;;3.57;;
67869;SDS011;54673;52.262;6.830;2024-03-23T03:53:15;14.10;;;3.83;;
67869;SDS011;54673;52.262;6.830;2024-03-23T03:55:41;16.00;;;4.17;;
67869;SDS011;54673;52.262;6.830;2024-03-23T03:58:06;12.10;;;3.70;;
67869;SDS011;54673;52.262;6.830;2024-03-23T04:00:32;10.33;;;4.00;;
67869;SDS011;54673;52.262;6.830;2024-03-23T04:02:58;13.35;;;4.50;;
67869;SDS011;54673;52.262;6.830;2024-03-23T04:05:23;8.23;;;3.53;;
67869;SDS011;54673;52.262;6.830;2024-03-23T04:07:49;17.23;;;4.18;;
67869;SDS011;54673;52.262;6.830;2024-03-23T04:10:15;14.93;;;3.73;;
67869;SDS011;54673;52.262;6.830;2024-03-23T04:12:40;14.27;;;4.57;;
67869;SDS011;54673;52.262;6.830;2024-03-23T04:15:06;19.55;;;4.70;;
67869;SDS011;54673;52.262;6.830;2024-03-23T04:17:33;17.10;;;4.40;;
67869;SDS011;54673;52.262;6.830;2024-03-23T04:19:59;20.23;;;5.00;;
67869;SDS011;54673;52.262;6.830;2024-03-23T04:22:26;17.35;;;4.90;;
67869;SDS011;54673;52.262;6.830;2024-03-23T04:24:53;18.13;;;4.60;;
67869;SDS011;54673;52.262;6.830;2024-03-23T04:27:19;22.27;;;5.63;;
67869;SDS011;54673;52.262;6.830;2024-03-23T04:29:51;21.53;;;4.90;;
67869;SDS011;54673;52.262;6.830;2024-03-23T04:32:17;14.30;;;5.22;;
67869;SDS011;54673;52.262;6.830;2024-03-23T04:34:43;11.33;;;4.43;;
67869;SDS011;54673;52.262;6.830;2024-03-23T04:37:09;16.40;;;4.88;;
67869;SDS011;54673;52.262;6.830;2024-03-23T04:39:35;15.23;;;4.27;;
67869;SDS011;54673;52.262;6.830;2024-03-23T04:42:02;19.07;;;5.00;;
67869;SDS011;54673;52.262;6.830;2024-03-23T04:44:28;14.52;;;4.57;;
67869;SDS011;54673;52.262;6.830;2024-03-23T04:46:54;26.57;;;5.50;;
67869;SDS011;54673;52.262;6.830;2024-03-23T04:49:19;19.80;;;5.50;;
67869;SDS011;54673;52.262;6.830;2024-03-23T04:51:45;15.80;;;5.53;;
67869;SDS011;54673;52.262;6.830;2024-03-23T04:54:14;11.48;;;4.70;;
67869;SDS011;54673;52.262;6.830;2024-03-23T04:56:40;16.67;;;5.07;;
67869;SDS011;54673;52.262;6.830;2024-03-23T04:59:07;15.68;;;5.82;;
67869;SDS011;54673;52.262;6.830;2024-03-23T05:01:32;18.27;;;5.73;;
67869;SDS011;54673;52.262;6.830;2024-03-23T05:03:58;14.02;;;5.53;;
67869;SDS011;54673;52.262;6.830;2024-03-23T05:06:24;14.10;;;5.33;;
67869;SDS011;54673;52.262;6.830;2024-03-23T05:08:50;15.30;;;5.07;;
67869;SDS011;54673;52.262;6.830;2024-03-23T05:11:16;19.83;;;5.67;;
67869;SDS011;54673;52.262;6.830;2024-03-23T05:13:43;22.67;;;7.10;;
67869;SDS011;54673;52.262;6.830;2024-03-23T05:16:09;16.23;;;5.38;;
67869;SDS011;54673;52.262;6.830;2024-03-23T05:18:35;11.00;;;4.30;;
67869;SDS011;54673;52.262;6.830;2024-03-23T05:21:01;18.85;;;6.07;;
67869;SDS011;54673;52.262;6.830;2024-03-23T05:23:28;19.30;;;6.63;;
67869;SDS011;54673;52.262;6.830;2024-03-23T05:25:53;12.50;;;4.70;;
67869;SDS011;54673;52.262;6.830;2024-03-23T05:28:20;14.17;;;6.00;;
67869;SDS011;54673;52.262;6.830;2024-03-23T05:30:52;18.00;;;6.40;;
67869;SDS011;54673;52.262;6.830;2024-03-23T05:33:19;14.90;;;5.75;;
67869;SDS011;54673;52.262;6.830;2024-03-23T05:35:45;13.77;;;5.50;;
67869;SDS011;54673;52.262;6.830;2024-03-23T05:38:20;19.30;;;5.35;;
67869;SDS011;54673;52.262;6.830;2024-03-23T05:41:19;16.77;;;6.83;;
67869;SDS011;54673;52.262;6.830;2024-03-23T05:43:38;18.25;;;6.57;;
67869;SDS011;54673;52.262;6.830;2024-03-23T05:46:04;22.10;;;7.23;;
67869;SDS011;54673;52.262;6.830;2024-03-23T05:48:30;17.48;;;5.93;;
67869;SDS011;54673;52.262;6.830;2024-03-23T05:50:56;14.90;;;5.83;;
67869;SDS011;54673;52.262;6.830;2024-03-23T05:53:22;27.70;;;7.80;;
67869;SDS011;54673;52.262;6.830;2024-03-23T05:55:48;16.95;;;5.97;;
67869;SDS011;54673;52.262;6.830;2024-03-23T05:58:17;18.27;;;6.20;;
67869;SDS011;54673;52.262;6.830;2024-03-23T06:00:46;14.25;;;5.90;;
67869;SDS011;54673;52.262;6.830;2024-03-23T06:03:12;12.77;;;5.53;;
67869;SDS011;54673;52.262;6.830;2024-03-23T06:05:37;14.98;;;5.55;;
67869;SDS011;54673;52.262;6.830;2024-03-23T06:08:03;15.63;;;6.00;;
67869;SDS011;54673;52.262;6.830;2024-03-23T06:10:29;18.73;;;6.40;;
67869;SDS011;54673;52.262;6.830;2024-03-23T06:12:55;18.67;;;6.43;;
67869;SDS011;54673;52.262;6.830;2024-03-23T06:15:21;13.90;;;5.93;;
67869;SDS011;54673;52.262;6.830;2024-03-23T06:17:47;10.93;;;5.20;;
67869;SDS011;54673;52.262;6.830;2024-03-23T06:20:13;15.80;;;5.88;;
67869;SDS011;54673;52.262;6.830;2024-03-23T06:22:39;15.70;;;5.53;;
67869;SDS011;54673;52.262;6.830;2024-03-23T06:25:05;13.77;;;5.57;;
67869;SDS011;54673;52.262;6.830;2024-03-23T06:27:31;22.77;;;6.45;;
67869;SDS011;54673;52.262;6.830;2024-03-23T06:30:00;22.37;;;7.60;;
67869;SDS011;54673;52.262;6.830;2024-03-23T06:32:29;16.75;;;5.47;;
67869;SDS011;54673;52.262;6.830;2024-03-23T06:34:55;16.90;;;5.40;;
67869;SDS011;54673;52.262;6.830;2024-03-23T06:37:20;15.00;;;5.53;;
67869;SDS011;54673;52.262;6.830;2024-03-23T06:39:46;20.83;;;7.33;;
67869;SDS011;54673;52.262;6.830;2024-03-23T06:42:12;18.52;;;6.40;;
67869;SDS011;54673;52.262;6.830;2024-03-23T06:44:38;20.25;;;6.47;;
67869;SDS011;54673;52.262;6.830;2024-03-23T06:47:04;20.60;;;6.67;;
67869;SDS011;54673;52.262;6.830;2024-03-23T06:49:30;23.42;;;6.40;;
67869;SDS011;54673;52.262;6.830;2024-03-23T06:51:55;21.33;;;5.67;;
67869;SDS011;54673;52.262;6.830;2024-03-23T06:54:21;18.80;;;5.50;;
67869;SDS011;54673;52.262;6.830;2024-03-23T06:56:47;16.35;;;5.68;;
67869;SDS011;54673;52.262;6.830;2024-03-23T06:59:12;19.43;;;6.17;;
67869;SDS011;54673;52.262;6.830;2024-03-23T07:01:38;12.43;;;4.82;;
67869;SDS011;54673;52.262;6.830;2024-03-23T07:04:04;13.77;;;5.30;;
67869;SDS011;54673;52.262;6.830;2024-03-23T07:06:32;10.23;;;4.90;;
67869;SDS011;54673;52.262;6.830;2024-03-23T07:08:58;13.32;;;5.35;;
67869;SDS011;54673;52.262;6.830;2024-03-23T07:11:24;13.37;;;4.63;;
67869;SDS011;54673;52.262;6.830;2024-03-23T07:13:50;17.92;;;5.05;;
67869;SDS011;54673;52.262;6.830;2024-03-23T07:16:17;20.45;;;5.63;;
67869;SDS011;54673;52.262;6.830;2024-03-23T07:18:43;16.70;;;5.00;;
67869;SDS011;54673;52.262;6.830;2024-03-23T07:21:08;14.10;;;4.80;;
67869;SDS011;54673;52.262;6.830;2024-03-23T07:23:34;16.70;;;5.00;;
67869;SDS011;54673;52.262;6.830;2024-03-23T07:26:03;12.77;;;4.00;;
67869;SDS011;54673;52.262;6.830;2024-03-23T07:28:30;18.25;;;4.30;;
67869;SDS011;54673;52.262;6.830;2024-03-23T07:33:30;12.23;;;3.87;;
67869;SDS011;54673;52.262;6.830;2024-03-23T07:35:56;6.78;;;2.90;;
67869;SDS011;54673;52.262;6.830;2024-03-23T07:38:22;8.20;;;2.57;;
67869;SDS011;54673;52.262;6.830;2024-03-23T07:40:48;5.88;;;2.38;;
67869;SDS011;54673;52.262;6.830;2024-03-23T07:43:21;8.38;;;2.65;;
67869;SDS011;54673;52.262;6.830;2024-03-23T07:45:53;10.52;;;2.15;;
67869;SDS011;54673;52.262;6.830;2024-03-23T07:48:20;8.27;;;2.63;;
67869;SDS011;54673;52.262;6.830;2024-03-23T07:50:55;8.80;;;2.50;;
67869;SDS011;54673;52.262;6.830;2024-03-23T07:53:31;6.22;;;2.50;;
67869;SDS011;54673;52.262;6.830;2024-03-23T07:55:58;6.10;;;2.22;;
67869;SDS011;54673;52.262;6.830;2024-03-23T07:58:25;5.25;;;1.95;;
67869;SDS011;54673;52.262;6.830;2024-03-23T08:00:52;7.00;;;2.78;;
67869;SDS011;54673;52.262;6.830;2024-03-23T08:03:18;11.53;;;2.63;;
67869;SDS011;54673;52.262;6.830;2024-03-23T08:05:44;6.05;;;2.63;;
67869;SDS011;54673;52.262;6.830;2024-03-23T08:08:10;10.73;;;2.50;;
67869;SDS011;54673;52.262;6.830;2024-03-23T08:10:36;9.82;;;2.60;;
67869;SDS011;54673;52.262;6.830;2024-03-23T08:13:03;8.20;;;2.37;;
67869;SDS011;54673;52.262;6.830;2024-03-23T08:15:31;6.93;;;2.13;;
67869;SDS011;54673;52.262;6.830;2024-03-23T08:18:00;8.68;;;2.60;;
67869;SDS011;54673;52.262;6.830;2024-03-23T08:20:26;6.78;;;2.45;;
67869;SDS011;54673;52.262;6.830;2024-03-23T08:22:52;6.30;;;2.60;;
67869;SDS011;54673;52.262;6.830;2024-03-23T08:25:17;12.37;;;3.00;;
67869;SDS011;54673;52.262;6.830;2024-03-23T08:27:44;11.03;;;2.93;;
67869;SDS011;54673;52.262;6.830;2024-03-23T08:30:10;6.70;;;2.47;;
67869;SDS011;54673;52.262;6.830;2024-03-23T08:32:36;7.68;;;2.33;;
67869;SDS011;54673;52.262;6.830;2024-03-23T08:35:02;15.33;;;3.03;;
67869;SDS011;54673;52.262;6.830;2024-03-23T08:37:27;11.60;;;3.00;;
67869;SDS011;54673;52.262;6.830;2024-03-23T08:39:53;16.80;;;3.37;;
67869;SDS011;54673;52.262;6.830;2024-03-23T08:42:18;11.57;;;2.70;;
67869;SDS011;54673;52.262;6.830;2024-03-23T08:44:44;9.30;;;2.63;;
67869;SDS011;54673;52.262;6.830;2024-03-23T08:47:14;11.33;;;2.30;;
67869;SDS011;54673;52.262;6.830;2024-03-23T08:49:40;11.02;;;2.60;;
67869;SDS011;54673;52.262;6.830;2024-03-23T08:52:06;8.13;;;2.45;;
67869;SDS011;54673;52.262;6.830;2024-03-23T08:54:32;9.30;;;2.47;;
67869;SDS011;54673;52.262;6.830;2024-03-23T08:56:57;8.47;;;2.53;;
67869;SDS011;54673;52.262;6.830;2024-03-23T08:59:23;7.95;;;2.90;;
67869;SDS011;54673;52.262;6.830;2024-03-23T09:01:49;6.57;;;2.20;;
67869;SDS011;54673;52.262;6.830;2024-03-23T09:04:14;9.30;;;2.45;;
67869;SDS011;54673;52.262;6.830;2024-03-23T09:06:42;9.03;;;1.93;;
67869;SDS011;54673;52.262;6.830;2024-03-23T09:09:08;6.18;;;1.83;;
67869;SDS011;54673;52.262;6.830;2024-03-23T09:11:33;4.43;;;2.00;;
67869;SDS011;54673;52.262;6.830;2024-03-23T09:13:59;6.17;;;1.70;;
67869;SDS011;54673;52.262;6.830;2024-03-23T09:16:24;6.38;;;1.83;;
67869;SDS011;54673;52.262;6.830;2024-03-23T09:18:51;8.10;;;1.90;;
67869;SDS011;54673;52.262;6.830;2024-03-23T09:21:17;6.55;;;1.95;;
67869;SDS011;54673;52.262;6.830;2024-03-23T09:23:43;8.47;;;2.00;;
67869;SDS011;54673;52.262;6.830;2024-03-23T09:26:09;8.32;;;1.83;;
67869;SDS011;54673;52.262;6.830;2024-03-23T09:28:35;6.47;;;1.70;;
67869;SDS011;54673;52.262;6.830;2024-03-23T09:33:30;7.30;;;2.37;;
67869;SDS011;54673;52.262;6.830;2024-03-23T09:35:56;9.30;;;1.90;;
67869;SDS011;54673;52.262;6.830;2024-03-23T09:38:22;8.80;;;2.50;;
67869;SDS011;54673;52.262;6.830;2024-03-23T09:40:48;9.98;;;2.33;;
67869;SDS011;54673;52.262;6.830;2024-03-23T09:43:18;6.88;;;1.90;;
67869;SDS011;54673;52.262;6.830;2024-03-23T09:45:44;13.03;;;2.10;;
67869;SDS011;54673;52.262;6.830;2024-03-23T09:48:11;7.88;;;1.88;;
67869;SDS011;54673;52.262;6.830;2024-03-23T09:50:38;4.07;;;1.80;;
67869;SDS011;54673;52.262;6.830;2024-03-23T09:53:04;4.88;;;1.60;;
67869;SDS011;54673;52.262;6.830;2024-03-23T09:55:31;6.15;;;1.40;;
67869;SDS011;54673;52.262;6.830;2024-03-23T09:57:57;7.43;;;1.80;;
67869;SDS011;54673;52.262;6.830;2024-03-23T10:00:23;12.03;;;2.10;;
67869;SDS011;54673;52.262;6.830;2024-03-23T10:02:48;4.65;;;1.48;;
67869;SDS011;54673;52.262;6.830;2024-03-23T10:05:23;7.20;;;1.97;;
67869;SDS011;54673;52.262;6.830;2024-03-23T10:07:52;3.83;;;1.40;;
67869;SDS011;54673;52.262;6.830;2024-03-23T10:10:17;3.07;;;1.87;;
67869;SDS011;54673;52.262;6.830;2024-03-23T10:12:45;6.82;;;1.42;;
67869;SDS011;54673;52.262;6.830;2024-03-23T10:15:25;3.73;;;1.23;;
67869;SDS011;54673;52.262;6.830;2024-03-23T10:17:51;8.07;;;1.90;;
67869;SDS011;54673;52.262;6.830;2024-03-23T10:20:20;4.68;;;1.20;;
67869;SDS011;54673;52.262;6.830;2024-03-23T10:22:47;3.27;;;1.50;;
67869;SDS011;54673;52.262;6.830;2024-03-23T10:25:17;9.45;;;1.40;;
67869;SDS011;54673;52.262;6.830;2024-03-23T10:27:55;5.73;;;1.60;;
67869;SDS011;54673;52.262;6.830;2024-03-23T10:30:24;2.90;;;1.10;;
67869;SDS011;54673;52.262;6.830;2024-03-23T10:32:53;4.90;;;0.95;;
67869;SDS011;54673;52.262;6.830;2024-03-23T10:35:36;3.87;;;1.50;;
67869;SDS011;54673;52.262;6.830;2024-03-23T10:38:06;3.50;;;1.20;;
67869;SDS011;54673;52.262;6.830;2024-03-23T10:40:36;5.60;;;1.13;;
67869;SDS011;54673;52.262;6.830;2024-03-23T10:43:05;9.35;;;1.40;;
67869;SDS011;54673;52.262;6.830;2024-03-23T10:45:33;4.00;;;1.40;;
67869;SDS011;54673;52.262;6.830;2024-03-23T10:47:59;5.57;;;1.40;;
67869;SDS011;54673;52.262;6.830;2024-03-23T10:50:24;6.35;;;1.27;;
67869;SDS011;54673;52.262;6.830;2024-03-23T10:52:50;6.17;;;1.40;;
67869;SDS011;54673;52.262;6.830;2024-03-23T10:55:18;3.25;;;1.30;;
67869;SDS011;54673;52.262;6.830;2024-03-23T10:57:53;5.37;;;1.20;;
67869;SDS011;54673;52.262;6.830;2024-03-23T11:00:20;1.95;;;0.88;;
67869;SDS011;54673;52.262;6.830;2024-03-23T11:02:48;4.30;;;0.90;;
67869;SDS011;54673;52.262;6.830;2024-03-23T11:05:27;2.43;;;0.70;;
67869;SDS011;54673;52.262;6.830;2024-03-23T11:07:54;6.18;;;1.13;;
67869;SDS011;54673;52.262;6.830;2024-03-23T11:10:30;2.83;;;0.90;;
67869;SDS011;54673;52.262;6.830;2024-03-23T11:12:56;2.22;;;0.98;;
67869;SDS011;54673;52.262;6.830;2024-03-23T11:15:22;3.25;;;0.90;;
67869;SDS011;54673;52.262;6.830;2024-03-23T11:20:37;6.57;;;1.00;;
67869;SDS011;54673;52.262;6.830;2024-03-23T11:23:03;3.57;;;0.90;;
67869;SDS011;54673;52.262;6.830;2024-03-23T11:25:29;4.40;;;0.80;;
67869;SDS011;54673;52.262;6.830;2024-03-23T11:27:55;6.03;;;1.10;;
67869;SDS011;54673;52.262;6.830;2024-03-23T11:30:36;3.97;;;0.98;;
67869;SDS011;54673;52.262;6.830;2024-03-23T11:33:03;2.33;;;0.80;;
67869;SDS011;54673;52.262;6.830;2024-03-23T11:35:33;3.30;;;0.90;;
67869;SDS011;54673;52.262;6.830;2024-03-23T11:38:03;2.33;;;0.73;;
67869;SDS011;54673;52.262;6.830;2024-03-23T11:40:40;2.30;;;0.90;;
67869;SDS011;54673;52.262;6.830;2024-03-23T11:43:10;2.45;;;0.55;;
67869;SDS011;54673;52.262;6.830;2024-03-23T11:45:39;3.13;;;0.70;;
67869;SDS011;54673;52.262;6.830;2024-03-23T11:48:08;2.27;;;0.70;;
67869;SDS011;54673;52.262;6.830;2024-03-23T11:50:38;1.50;;;0.80;;
67869;SDS011;54673;52.262;6.830;2024-03-23T11:53:16;3.30;;;0.80;;
67869;SDS011;54673;52.262;6.830;2024-03-23T11:58:11;5.63;;;0.93;;
67869;SDS011;54673;52.262;6.830;2024-03-23T12:00:37;3.00;;;1.15;;
67869;SDS011;54673;52.262;6.830;2024-03-23T12:03:03;3.50;;;1.47;;
67869;SDS011;54673;52.262;6.830;2024-03-23T12:05:29;1.42;;;0.60;;
67869;SDS011;54673;52.262;6.830;2024-03-23T12:08:15;5.47;;;0.80;;
67869;SDS011;54673;52.262;6.830;2024-03-23T12:11:04;1.33;;;0.80;;
67869;SDS011;54673;52.262;6.830;2024-03-23T12:13:29;3.83;;;1.00;;
67869;SDS011;54673;52.262;6.830;2024-03-23T12:15:56;2.83;;;0.90;;
67869;SDS011;54673;52.262;6.830;2024-03-23T12:18:45;2.90;;;1.00;;
67869;SDS011;54673;52.262;6.830;2024-03-23T12:21:12;3.88;;;0.95;;
67869;SDS011;54673;52.262;6.830;2024-03-23T12:23:41;5.63;;;0.97;;
67869;SDS011;54673;52.262;6.830;2024-03-23T12:26:09;6.28;;;1.02;;
67869;SDS011;54673;52.262;6.830;2024-03-23T12:28:35;7.50;;;1.10;;
67869;SDS011;54673;52.262;6.830;2024-03-23T12:31:00;2.75;;;0.80;;
67869;SDS011;54673;52.262;6.830;2024-03-23T12:33:26;2.77;;;0.80;;
67869;SDS011;54673;52.262;6.830;2024-03-23T12:35:51;1.87;;;0.90;;
67869;SDS011;54673;52.262;6.830;2024-03-23T12:38:17;4.82;;;1.10;;
67869;SDS011;54673;52.262;6.830;2024-03-23T12:40:49;3.67;;;1.10;;
67869;SDS011;54673;52.262;6.830;2024-03-23T12:43:15;6.32;;;1.20;;
67869;SDS011;54673;52.262;6.830;2024-03-23T12:45:48;5.20;;;0.90;;
67869;SDS011;54673;52.262;6.830;2024-03-23T12:48:15;4.97;;;0.90;;
67869;SDS011;54673;52.262;6.830;2024-03-23T12:50:41;7.30;;;1.20;;
67869;SDS011;54673;52.262;6.830;2024-03-23T12:53:06;3.03;;;1.30;;
67869;SDS011;54673;52.262;6.830;2024-03-23T12:55:34;2.65;;;0.80;;
67869;SDS011;54673;52.262;6.830;2024-03-23T12:58:00;2.40;;;0.90;;
67869;SDS011;54673;52.262;6.830;2024-03-23T13:00:25;4.88;;;0.70;;
67869;SDS011;54673;52.262;6.830;2024-03-23T13:02:51;3.13;;;0.80;;
67869;SDS011;54673;52.262;6.830;2024-03-23T13:05:16;5.70;;;1.05;;
67869;SDS011;54673;52.262;6.830;2024-03-23T13:07:42;3.30;;;0.83;;
67869;SDS011;54673;52.262;6.830;2024-03-23T13:10:07;4.80;;;0.83;;
67869;SDS011;54673;52.262;6.830;2024-03-23T13:12:34;1.85;;;1.00;;
67869;SDS011;54673;52.262;6.830;2024-03-23T13:14:59;5.83;;;1.00;;
67869;SDS011;54673;52.262;6.830;2024-03-23T13:17:26;1.80;;;0.82;;
67869;SDS011;54673;52.262;6.830;2024-03-23T13:19:52;2.17;;;0.80;;
67869;SDS011;54673;52.262;6.830;2024-03-23T13:22:18;5.60;;;0.90;;
67869;SDS011;54673;52.262;6.830;2024-03-23T13:24:44;3.53;;;0.87;;
67869;SDS011;54673;52.262;6.830;2024-03-23T13:27:09;4.45;;;0.77;;
67869;SDS011;54673;52.262;6.830;2024-03-23T13:29:36;4.70;;;0.85;;
67869;SDS011;54673;52.262;6.830;2024-03-23T13:32:02;2.80;;;0.80;;
67869;SDS011;54673;52.262;6.830;2024-03-23T13:34:28;8.20;;;0.85;;
67869;SDS011;54673;52.262;6.830;2024-03-23T13:36:54;3.53;;;0.70;;
67869;SDS011;54673;52.262;6.830;2024-03-23T13:39:21;5.57;;;0.77;;
67869;SDS011;54673;52.262;6.830;2024-03-23T13:41:46;3.30;;;0.70;;
67869;SDS011;54673;52.262;6.830;2024-03-23T13:44:12;4.15;;;0.90;;
67869;SDS011;54673;52.262;6.830;2024-03-23T13:46:39;5.33;;;1.10;;
67869;SDS011;54673;52.262;6.830;2024-03-23T13:49:07;3.50;;;0.80;;
67869;SDS011;54673;52.262;6.830;2024-03-23T13:51:49;3.27;;;0.80;;
67869;SDS011;54673;52.262;6.830;2024-03-23T13:54:15;5.10;;;0.93;;
67869;SDS011;54673;52.262;6.830;2024-03-23T13:56:40;8.10;;;1.20;;
67869;SDS011;54673;52.262;6.830;2024-03-23T13:59:06;6.47;;;1.10;;
67869;SDS011;54673;52.262;6.830;2024-03-23T14:01:31;7.10;;;1.00;;
67869;SDS011;54673;52.262;6.830;2024-03-23T14:03:57;4.33;;;1.10;;
67869;SDS011;54673;52.262;6.830;2024-03-23T14:06:23;5.00;;;0.80;;
67869;SDS011;54673;52.262;6.830;2024-03-23T14:08:49;5.23;;;1.00;;
67869;SDS011;54673;52.262;6.830;2024-03-23T14:11:14;3.10;;;0.88;;
67869;SDS011;54673;52.262;6.830;2024-03-23T14:13:40;4.90;;;0.97;;
67869;SDS011;54673;52.262;6.830;2024-03-23T14:16:06;3.05;;;0.70;;
67869;SDS011;54673;52.262;6.830;2024-03-23T14:18:31;4.93;;;0.90;;
67869;SDS011;54673;52.262;6.830;2024-03-23T14:20:58;2.85;;;1.08;;
67869;SDS011;54673;52.262;6.830;2024-03-23T14:23:25;7.50;;;0.83;;
67869;SDS011;54673;52.262;6.830;2024-03-23T14:25:58;3.03;;;0.70;;
67869;SDS011;54673;52.262;6.830;2024-03-23T14:28:24;6.60;;;1.00;;
67869;SDS011;54673;52.262;6.830;2024-03-23T14:30:50;3.58;;;1.17;;
67869;SDS011;54673;52.262;6.830;2024-03-23T14:33:16;3.08;;;0.70;;
67869;SDS011;54673;52.262;6.830;2024-03-23T14:35:43;3.63;;;0.90;;
67869;SDS011;54673;52.262;6.830;2024-03-23T14:38:16;6.20;;;0.93;;
67869;SDS011;54673;52.262;6.830;2024-03-23T14:40:41;5.20;;;1.10;;
67869;SDS011;54673;52.262;6.830;2024-03-23T14:43:07;1.47;;;0.80;;
67869;SDS011;54673;52.262;6.830;2024-03-23T14:45:33;5.50;;;0.95;;
67869;SDS011;54673;52.262;6.830;2024-03-23T14:47:58;3.73;;;0.90;;
67869;SDS011;54673;52.262;6.830;2024-03-23T14:50:25;4.82;;;1.20;;
67869;SDS011;54673;52.262;6.830;2024-03-23T14:52:51;4.23;;;0.90;;
67869;SDS011;54673;52.262;6.830;2024-03-23T14:55:16;5.35;;;1.02;;
67869;SDS011;54673;52.262;6.830;2024-03-23T14:57:42;3.90;;;1.00;;
67869;SDS011;54673;52.262;6.830;2024-03-23T15:00:08;4.57;;;0.98;;
67869;SDS011;54673;52.262;6.830;2024-03-23T15:02:38;2.80;;;0.70;;
67869;SDS011;54673;52.262;6.830;2024-03-23T15:05:05;4.47;;;0.82;;
67869;SDS011;54673;52.262;6.830;2024-03-23T15:07:35;6.43;;;1.07;;
67869;SDS011;54673;52.262;6.830;2024-03-23T15:10:03;6.82;;;0.90;;
67869;SDS011;54673;52.262;6.830;2024-03-23T15:12:30;6.32;;;1.15;;
67869;SDS011;54673;52.262;6.830;2024-03-23T15:14:57;4.30;;;0.80;;
67869;SDS011;54673;52.262;6.830;2024-03-23T15:17:23;5.60;;;0.80;;
67869;SDS011;54673;52.262;6.830;2024-03-23T15:19:49;6.50;;;1.00;;
67869;SDS011;54673;52.262;6.830;2024-03-23T15:22:14;3.37;;;0.77;;
67869;SDS011;54673;52.262;6.830;2024-03-23T15:24:40;5.93;;;0.90;;
67869;SDS011;54673;52.262;6.830;2024-03-23T15:27:05;6.50;;;0.73;;
67869;SDS011;54673;52.262;6.830;2024-03-23T15:29:33;3.40;;;0.88;;
67869;SDS011;54673;52.262;6.830;2024-03-23T15:31:59;5.53;;;1.03;;
67869;SDS011;54673;52.262;6.830;2024-03-23T15:34:25;6.47;;;1.10;;
67869;SDS011;54673;52.262;6.830;2024-03-23T15:36:50;4.00;;;1.07;;
67869;SDS011;54673;52.262;6.830;2024-03-23T15:39:16;3.70;;;0.80;;
67869;SDS011;54673;52.262;6.830;2024-03-23T15:41:45;2.67;;;0.77;;